sensor_id;sensor_type;location;lat;lon;timestamp;temperature;humidity
1447;DHT22;717;51.522;7.266;2022-10-31T00:02:22;21.00;99.40
1447;DHT22;717;51.522;7.266;2022-10-31T00:04:50;21.00;99.40
1447;DHT22;717;51.522;7.266;2022-10-31T00:07:16;21.00;99.50
1447;DHT22;717;51.522;7.266;2022-10-31T00:09:43;21.00;99.50
1447;DHT22;717;51.522;7.266;2022-10-31T00:12:10;21.00;99.50
1447;DHT22;717;51.522;7.266;2022-10-31T00:14:36;21.00;99.50
1447;DHT22;717;51.522;7.266;2022-10-31T00:17:03;21.00;99.50
1447;DHT22;717;51.522;7.266;2022-10-31T00:19:30;21.00;99.60
1447;DHT22;717;51.522;7.266;2022-10-31T00:21:58;21.00;99.60
1447;DHT22;717;51.522;7.266;2022-10-31T00:24:25;21.00;99.70
1447;DHT22;717;51.522;7.266;2022-10-31T00:26:51;21.00;99.70
1447;DHT22;717;51.522;7.266;2022-10-31T00:29:18;20.90;99.70
1447;DHT22;717;51.522;7.266;2022-10-31T00:31:45;20.90;99.70
1447;DHT22;717;51.522;7.266;2022-10-31T00:34:11;20.90;99.70
1447;DHT22;717;51.522;7.266;2022-10-31T00:36:38;21.00;99.70
1447;DHT22;717;51.522;7.266;2022-10-31T00:39:06;21.00;99.70
1447;DHT22;717;51.522;7.266;2022-10-31T00:41:33;21.00;99.70
1447;DHT22;717;51.522;7.266;2022-10-31T00:44:00;21.00;99.70
1447;DHT22;717;51.522;7.266;2022-10-31T00:46:26;21.00;99.70
1447;DHT22;717;51.522;7.266;2022-10-31T00:48:53;21.00;99.60
1447;DHT22;717;51.522;7.266;2022-10-31T00:51:20;21.00;99.60
1447;DHT22;717;51.522;7.266;2022-10-31T00:53:47;21.00;99.60
1447;DHT22;717;51.522;7.266;2022-10-31T00:56:15;21.00;99.70
1447;DHT22;717;51.522;7.266;2022-10-31T00:58:42;21.00;99.70
1447;DHT22;717;51.522;7.266;2022-10-31T01:01:08;21.00;99.70
1447;DHT22;717;51.522;7.266;2022-10-31T01:03:35;21.00;99.70
1447;DHT22;717;51.522;7.266;2022-10-31T01:06:05;21.00;99.70
1447;DHT22;717;51.522;7.266;2022-10-31T01:08:33;20.90;99.70
1447;DHT22;717;51.522;7.266;2022-10-31T01:11:02;20.90;99.70
1447;DHT22;717;51.522;7.266;2022-10-31T01:13:31;20.90;99.80
1447;DHT22;717;51.522;7.266;2022-10-31T01:15:59;20.90;99.80
1447;DHT22;717;51.522;7.266;2022-10-31T01:18:26;20.90;99.80
1447;DHT22;717;51.522;7.266;2022-10-31T01:21:01;20.90;99.80
1447;DHT22;717;51.522;7.266;2022-10-31T01:23:28;20.90;99.90
1447;DHT22;717;51.522;7.266;2022-10-31T01:26:00;20.90;99.90
1447;DHT22;717;51.522;7.266;2022-10-31T01:28:27;20.90;99.90
1447;DHT22;717;51.522;7.266;2022-10-31T01:30:55;20.90;99.90
1447;DHT22;717;51.522;7.266;2022-10-31T01:33:21;20.90;99.90
1447;DHT22;717;51.522;7.266;2022-10-31T01:35:48;20.90;99.90
1447;DHT22;717;51.522;7.266;2022-10-31T01:38:15;20.90;99.90
1447;DHT22;717;51.522;7.266;2022-10-31T01:40:41;20.90;99.90
1447;DHT22;717;51.522;7.266;2022-10-31T01:43:12;20.80;99.90
1447;DHT22;717;51.522;7.266;2022-10-31T01:45:40;20.80;99.90
1447;DHT22;717;51.522;7.266;2022-10-31T01:48:12;20.80;99.90
1447;DHT22;717;51.522;7.266;2022-10-31T01:50:40;20.80;99.90
1447;DHT22;717;51.522;7.266;2022-10-31T01:53:08;20.80;99.90
1447;DHT22;717;51.522;7.266;2022-10-31T01:55:38;20.80;99.90
1447;DHT22;717;51.522;7.266;2022-10-31T01:58:09;20.80;99.90
1447;DHT22;717;51.522;7.266;2022-10-31T02:00:39;20.80;99.90
1447;DHT22;717;51.522;7.266;2022-10-31T02:03:05;20.80;99.90
1447;DHT22;717;51.522;7.266;2022-10-31T02:05:33;20.80;99.90
1447;DHT22;717;51.522;7.266;2022-10-31T02:08:04;20.80;99.90
1447;DHT22;717;51.522;7.266;2022-10-31T02:10:34;20.70;99.90
1447;DHT22;717;51.522;7.266;2022-10-31T02:13:03;20.80;99.90
1447;DHT22;717;51.522;7.266;2022-10-31T02:15:31;20.80;99.90
1447;DHT22;717;51.522;7.266;2022-10-31T02:17:59;20.80;99.90
1447;DHT22;717;51.522;7.266;2022-10-31T02:20:30;20.80;99.90
1447;DHT22;717;51.522;7.266;2022-10-31T02:23:20;20.80;99.90
1447;DHT22;717;51.522;7.266;2022-10-31T02:29:16;20.70;99.90
1447;DHT22;717;51.522;7.266;2022-10-31T02:31:53;20.70;99.90
1447;DHT22;717;51.522;7.266;2022-10-31T02:34:24;20.70;99.90
1447;DHT22;717;51.522;7.266;2022-10-31T02:36:57;20.70;99.90
1447;DHT22;717;51.522;7.266;2022-10-31T02:39:29;20.70;99.90
1447;DHT22;717;51.522;7.266;2022-10-31T02:42:04;20.60;99.90
1447;DHT22;717;51.522;7.266;2022-10-31T02:44:36;20.60;99.90
1447;DHT22;717;51.522;7.266;2022-10-31T02:47:08;20.60;99.90
1447;DHT22;717;51.522;7.266;2022-10-31T02:49:39;20.60;99.90
1447;DHT22;717;51.522;7.266;2022-10-31T02:52:14;20.50;99.90
1447;DHT22;717;51.522;7.266;2022-10-31T02:54:44;20.50;99.90
1447;DHT22;717;51.522;7.266;2022-10-31T02:57:13;20.50;99.90
1447;DHT22;717;51.522;7.266;2022-10-31T02:59:44;20.50;99.90
1447;DHT22;717;51.522;7.266;2022-10-31T03:05:24;20.40;99.90
1447;DHT22;717;51.522;7.266;2022-10-31T03:08:01;20.40;99.90
1447;DHT22;717;51.522;7.266;2022-10-31T03:10:35;20.40;99.90
1447;DHT22;717;51.522;7.266;2022-10-31T03:13:09;20.40;99.90
1447;DHT22;717;51.522;7.266;2022-10-31T03:15:39;20.40;99.90
1447;DHT22;717;51.522;7.266;2022-10-31T03:18:15;20.40;99.90
1447;DHT22;717;51.522;7.266;2022-10-31T03:20:47;20.40;99.90
1447;DHT22;717;51.522;7.266;2022-10-31T03:23:18;20.40;99.90
1447;DHT22;717;51.522;7.266;2022-10-31T03:25:46;20.40;99.90
1447;DHT22;717;51.522;7.266;2022-10-31T03:28:16;20.40;99.90
1447;DHT22;717;51.522;7.266;2022-10-31T03:30:45;20.30;99.90
1447;DHT22;717;51.522;7.266;2022-10-31T03:33:16;20.40;99.90
1447;DHT22;717;51.522;7.266;2022-10-31T03:35:47;20.30;99.90
1447;DHT22;717;51.522;7.266;2022-10-31T03:38:15;20.30;99.90
1447;DHT22;717;51.522;7.266;2022-10-31T03:40:43;20.30;99.90
1447;DHT22;717;51.522;7.266;2022-10-31T03:43:15;20.30;99.90
1447;DHT22;717;51.522;7.266;2022-10-31T03:45:45;20.30;99.90
1447;DHT22;717;51.522;7.266;2022-10-31T03:48:14;20.30;99.90
1447;DHT22;717;51.522;7.266;2022-10-31T03:50:47;20.30;99.90
1447;DHT22;717;51.522;7.266;2022-10-31T03:53:20;20.30;99.90
1447;DHT22;717;51.522;7.266;2022-10-31T03:55:50;20.30;99.90
1447;DHT22;717;51.522;7.266;2022-10-31T03:58:21;20.20;99.90
1447;DHT22;717;51.522;7.266;2022-10-31T04:00:51;20.20;99.90
1447;DHT22;717;51.522;7.266;2022-10-31T04:03:24;20.20;99.90
1447;DHT22;717;51.522;7.266;2022-10-31T04:05:54;20.20;99.90
1447;DHT22;717;51.522;7.266;2022-10-31T04:08:26;20.20;99.90
1447;DHT22;717;51.522;7.266;2022-10-31T04:10:56;20.10;99.90
1447;DHT22;717;51.522;7.266;2022-10-31T04:13:26;20.10;99.90
1447;DHT22;717;51.522;7.266;2022-10-31T04:15:54;20.10;99.90
1447;DHT22;717;51.522;7.266;2022-10-31T04:18:23;20.10;99.90
1447;DHT22;717;51.522;7.266;2022-10-31T04:20:59;20.10;99.90
1447;DHT22;717;51.522;7.266;2022-10-31T04:23:26;20.10;99.90
1447;DHT22;717;51.522;7.266;2022-10-31T04:25:53;20.10;99.90
1447;DHT22;717;51.522;7.266;2022-10-31T04:28:20;20.00;99.90
1447;DHT22;717;51.522;7.266;2022-10-31T04:30:47;20.00;99.90
1447;DHT22;717;51.522;7.266;2022-10-31T04:33:13;20.00;99.90
1447;DHT22;717;51.522;7.266;2022-10-31T04:35:41;20.00;99.90
1447;DHT22;717;51.522;7.266;2022-10-31T04:38:08;19.90;99.90
1447;DHT22;717;51.522;7.266;2022-10-31T04:40:35;19.90;99.90
1447;DHT22;717;51.522;7.266;2022-10-31T04:43:01;19.90;99.90
1447;DHT22;717;51.522;7.266;2022-10-31T04:45:28;19.90;99.90
1447;DHT22;717;51.522;7.266;2022-10-31T04:47:55;19.90;99.90
1447;DHT22;717;51.522;7.266;2022-10-31T04:50:21;19.80;99.90
1447;DHT22;717;51.522;7.266;2022-10-31T04:52:49;19.80;99.90
1447;DHT22;717;51.522;7.266;2022-10-31T04:55:16;19.80;99.90
1447;DHT22;717;51.522;7.266;2022-10-31T04:57:44;19.80;99.90
1447;DHT22;717;51.522;7.266;2022-10-31T05:00:13;19.80;99.90
1447;DHT22;717;51.522;7.266;2022-10-31T05:02:44;19.80;99.80
1447;DHT22;717;51.522;7.266;2022-10-31T05:05:11;19.80;99.80
1447;DHT22;717;51.522;7.266;2022-10-31T05:07:39;19.80;99.80
1447;DHT22;717;51.522;7.266;2022-10-31T05:10:08;19.70;99.80
1447;DHT22;717;51.522;7.266;2022-10-31T05:12:36;19.70;99.80
1447;DHT22;717;51.522;7.266;2022-10-31T05:15:03;19.70;99.80
1447;DHT22;717;51.522;7.266;2022-10-31T05:17:30;19.70;99.80
1447;DHT22;717;51.522;7.266;2022-10-31T05:19:57;19.70;99.80
1447;DHT22;717;51.522;7.266;2022-10-31T05:22:24;19.70;99.80
1447;DHT22;717;51.522;7.266;2022-10-31T05:24:50;19.60;99.70
1447;DHT22;717;51.522;7.266;2022-10-31T05:27:18;19.60;99.70
1447;DHT22;717;51.522;7.266;2022-10-31T05:29:45;19.60;99.70
1447;DHT22;717;51.522;7.266;2022-10-31T05:32:11;19.50;99.70
1447;DHT22;717;51.522;7.266;2022-10-31T05:34:37;19.50;99.70
1447;DHT22;717;51.522;7.266;2022-10-31T05:37:04;19.50;99.70
1447;DHT22;717;51.522;7.266;2022-10-31T05:39:31;19.50;99.70
1447;DHT22;717;51.522;7.266;2022-10-31T05:41:57;19.50;99.70
1447;DHT22;717;51.522;7.266;2022-10-31T05:44:25;19.50;99.80
1447;DHT22;717;51.522;7.266;2022-10-31T05:46:52;19.50;99.70
1447;DHT22;717;51.522;7.266;2022-10-31T07:28:13;19.10;99.90
1447;DHT22;717;51.522;7.266;2022-10-31T07:30:40;19.10;99.90
1447;DHT22;717;51.522;7.266;2022-10-31T07:33:06;19.10;99.90
1447;DHT22;717;51.522;7.266;2022-10-31T07:35:33;19.10;99.90
1447;DHT22;717;51.522;7.266;2022-10-31T07:38:07;19.10;99.90
1447;DHT22;717;51.522;7.266;2022-10-31T07:40:34;19.20;99.90
1447;DHT22;717;51.522;7.266;2022-10-31T07:43:02;19.10;99.90
1447;DHT22;717;51.522;7.266;2022-10-31T07:45:30;19.10;99.90
1447;DHT22;717;51.522;7.266;2022-10-31T07:47:56;19.20;99.90
1447;DHT22;717;51.522;7.266;2022-10-31T07:50:25;19.20;99.90
1447;DHT22;717;51.522;7.266;2022-10-31T07:52:59;19.10;99.90
1447;DHT22;717;51.522;7.266;2022-10-31T07:55:26;19.20;99.90
1447;DHT22;717;51.522;7.266;2022-10-31T07:57:57;19.20;99.90
1447;DHT22;717;51.522;7.266;2022-10-31T08:00:24;19.20;99.90
1447;DHT22;717;51.522;7.266;2022-10-31T08:02:58;19.20;99.90
1447;DHT22;717;51.522;7.266;2022-10-31T08:05:25;19.20;99.90
1447;DHT22;717;51.522;7.266;2022-10-31T08:07:52;19.20;99.90
1447;DHT22;717;51.522;7.266;2022-10-31T08:10:19;19.20;99.90
1447;DHT22;717;51.522;7.266;2022-10-31T08:12:55;19.30;99.90
1447;DHT22;717;51.522;7.266;2022-10-31T08:15:21;19.30;99.90
1447;DHT22;717;51.522;7.266;2022-10-31T08:17:48;19.30;99.90
1447;DHT22;717;51.522;7.266;2022-10-31T08:20:16;19.30;99.90
1447;DHT22;717;51.522;7.266;2022-10-31T08:22:43;19.40;99.90
1447;DHT22;717;51.522;7.266;2022-10-31T08:25:18;19.40;99.90
1447;DHT22;717;51.522;7.266;2022-10-31T08:27:48;19.40;99.90
1447;DHT22;717;51.522;7.266;2022-10-31T08:30:15;19.40;99.90
1447;DHT22;717;51.522;7.266;2022-10-31T08:32:42;19.40;99.90
1447;DHT22;717;51.522;7.266;2022-10-31T08:35:09;19.40;99.90
1447;DHT22;717;51.522;7.266;2022-10-31T08:37:37;19.40;99.90
1447;DHT22;717;51.522;7.266;2022-10-31T08:40:05;19.50;99.90
1447;DHT22;717;51.522;7.266;2022-10-31T08:42:32;19.50;99.90
1447;DHT22;717;51.522;7.266;2022-10-31T08:44:59;19.50;99.90
1447;DHT22;717;51.522;7.266;2022-10-31T08:47:26;19.50;99.90
1447;DHT22;717;51.522;7.266;2022-10-31T08:49:53;19.50;99.90
1447;DHT22;717;51.522;7.266;2022-10-31T08:52:22;19.60;99.90
1447;DHT22;717;51.522;7.266;2022-10-31T08:54:50;19.60;99.90
1447;DHT22;717;51.522;7.266;2022-10-31T08:57:17;19.60;99.90
1447;DHT22;717;51.522;7.266;2022-10-31T08:59:44;19.60;99.90
1447;DHT22;717;51.522;7.266;2022-10-31T09:02:11;19.70;99.90
1447;DHT22;717;51.522;7.266;2022-10-31T09:04:37;19.70;99.90
1447;DHT22;717;51.522;7.266;2022-10-31T09:07:04;19.70;99.90
1447;DHT22;717;51.522;7.266;2022-10-31T09:09:31;19.70;99.90
1447;DHT22;717;51.522;7.266;2022-10-31T09:11:59;19.70;99.90
1447;DHT22;717;51.522;7.266;2022-10-31T09:14:26;19.80;99.90
1447;DHT22;717;51.522;7.266;2022-10-31T09:16:52;19.80;99.90
1447;DHT22;717;51.522;7.266;2022-10-31T09:19:19;19.80;99.90
1447;DHT22;717;51.522;7.266;2022-10-31T09:21:46;19.80;99.90
1447;DHT22;717;51.522;7.266;2022-10-31T09:24:13;19.80;99.90
1447;DHT22;717;51.522;7.266;2022-10-31T09:26:39;19.90;99.90
1447;DHT22;717;51.522;7.266;2022-10-31T09:29:07;19.90;99.90
1447;DHT22;717;51.522;7.266;2022-10-31T09:31:35;19.90;99.90
1447;DHT22;717;51.522;7.266;2022-10-31T09:34:02;19.90;99.90
1447;DHT22;717;51.522;7.266;2022-10-31T09:36:29;19.90;99.90
1447;DHT22;717;51.522;7.266;2022-10-31T09:38:56;20.00;99.90
1447;DHT22;717;51.522;7.266;2022-10-31T09:41:26;20.00;99.90
1447;DHT22;717;51.522;7.266;2022-10-31T09:44:04;20.00;99.90
1447;DHT22;717;51.522;7.266;2022-10-31T09:46:38;20.00;99.90
1447;DHT22;717;51.522;7.266;2022-10-31T09:49:33;20.10;99.90
1447;DHT22;717;51.522;7.266;2022-10-31T09:52:04;20.10;99.90
1447;DHT22;717;51.522;7.266;2022-10-31T09:54:38;20.10;99.90
1447;DHT22;717;51.522;7.266;2022-10-31T09:57:12;20.10;99.90
1447;DHT22;717;51.522;7.266;2022-10-31T09:59:42;20.20;99.90
1447;DHT22;717;51.522;7.266;2022-10-31T10:02:15;20.20;99.90
1447;DHT22;717;51.522;7.266;2022-10-31T10:04:46;20.20;99.90
1447;DHT22;717;51.522;7.266;2022-10-31T10:07:27;20.30;99.90
1447;DHT22;717;51.522;7.266;2022-10-31T10:09:57;20.30;99.90
1447;DHT22;717;51.522;7.266;2022-10-31T10:12:36;20.30;99.90
1447;DHT22;717;51.522;7.266;2022-10-31T10:18:12;20.40;99.90
1447;DHT22;717;51.522;7.266;2022-10-31T10:20:53;20.40;99.90
1447;DHT22;717;51.522;7.266;2022-10-31T10:23:34;20.40;99.90
1447;DHT22;717;51.522;7.266;2022-10-31T10:26:07;20.50;99.90
1447;DHT22;717;51.522;7.266;2022-10-31T10:28:38;20.50;99.90
1447;DHT22;717;51.522;7.266;2022-10-31T10:31:10;20.50;99.90
1447;DHT22;717;51.522;7.266;2022-10-31T10:33:46;20.50;99.90
1447;DHT22;717;51.522;7.266;2022-10-31T10:36:19;20.60;99.90
1447;DHT22;717;51.522;7.266;2022-10-31T10:38:51;20.60;99.90
1447;DHT22;717;51.522;7.266;2022-10-31T10:41:20;20.60;99.90
1447;DHT22;717;51.522;7.266;2022-10-31T10:43:49;20.70;99.90
1447;DHT22;717;51.522;7.266;2022-10-31T10:46:23;20.70;99.90
1447;DHT22;717;51.522;7.266;2022-10-31T10:49:22;20.70;99.90
1447;DHT22;717;51.522;7.266;2022-10-31T10:51:57;20.70;99.90
1447;DHT22;717;51.522;7.266;2022-10-31T10:54:58;20.70;99.90
1447;DHT22;717;51.522;7.266;2022-10-31T10:57:33;20.80;99.90
1447;DHT22;717;51.522;7.266;2022-10-31T11:00:19;20.80;99.90
1447;DHT22;717;51.522;7.266;2022-10-31T11:02:46;20.90;99.90
1447;DHT22;717;51.522;7.266;2022-10-31T11:05:22;20.90;99.90
1447;DHT22;717;51.522;7.266;2022-10-31T11:07:50;20.90;99.90
1447;DHT22;717;51.522;7.266;2022-10-31T11:10:17;21.00;99.90
1447;DHT22;717;51.522;7.266;2022-10-31T11:12:56;21.00;99.90
1447;DHT22;717;51.522;7.266;2022-10-31T11:15:26;21.00;99.90
1447;DHT22;717;51.522;7.266;2022-10-31T11:17:55;21.00;99.90
1447;DHT22;717;51.522;7.266;2022-10-31T11:20:30;21.00;99.90
1447;DHT22;717;51.522;7.266;2022-10-31T11:23:10;21.10;99.90
1447;DHT22;717;51.522;7.266;2022-10-31T11:25:48;21.10;99.90
1447;DHT22;717;51.522;7.266;2022-10-31T11:28:16;21.10;99.90
1447;DHT22;717;51.522;7.266;2022-10-31T11:30:44;21.10;99.90
1447;DHT22;717;51.522;7.266;2022-10-31T11:33:17;21.10;99.90
1447;DHT22;717;51.522;7.266;2022-10-31T11:35:47;21.20;99.90
1447;DHT22;717;51.522;7.266;2022-10-31T11:38:18;21.20;99.90
1447;DHT22;717;51.522;7.266;2022-10-31T11:40:56;21.20;99.90
1447;DHT22;717;51.522;7.266;2022-10-31T11:43:24;21.20;99.90
1447;DHT22;717;51.522;7.266;2022-10-31T11:45:51;21.20;99.90
1447;DHT22;717;51.522;7.266;2022-10-31T11:48:20;21.20;99.90
1447;DHT22;717;51.522;7.266;2022-10-31T11:50:51;21.30;99.90
1447;DHT22;717;51.522;7.266;2022-10-31T11:53:22;21.30;99.90
1447;DHT22;717;51.522;7.266;2022-10-31T11:56:02;21.30;99.90
1447;DHT22;717;51.522;7.266;2022-10-31T11:58:30;21.30;99.90
1447;DHT22;717;51.522;7.266;2022-10-31T12:00:57;21.30;99.90
1447;DHT22;717;51.522;7.266;2022-10-31T12:03:36;21.40;99.90
1447;DHT22;717;51.522;7.266;2022-10-31T12:06:09;21.40;99.90
1447;DHT22;717;51.522;7.266;2022-10-31T12:08:40;21.40;99.90
1447;DHT22;717;51.522;7.266;2022-10-31T12:11:15;21.40;99.90
1447;DHT22;717;51.522;7.266;2022-10-31T12:13:55;21.50;99.90
1447;DHT22;717;51.522;7.266;2022-10-31T12:16:28;21.50;99.90
1447;DHT22;717;51.522;7.266;2022-10-31T12:19:00;21.60;99.90
1447;DHT22;717;51.522;7.266;2022-10-31T12:24:29;21.60;99.90
1447;DHT22;717;51.522;7.266;2022-10-31T12:27:06;21.60;99.90
1447;DHT22;717;51.522;7.266;2022-10-31T12:29:49;21.70;99.90
1447;DHT22;717;51.522;7.266;2022-10-31T12:32:27;21.70;99.90
1447;DHT22;717;51.522;7.266;2022-10-31T12:35:25;21.70;99.90
1447;DHT22;717;51.522;7.266;2022-10-31T12:38:20;21.70;99.90
1447;DHT22;717;51.522;7.266;2022-10-31T12:41:07;21.80;99.90
1447;DHT22;717;51.522;7.266;2022-10-31T12:43:45;21.80;99.90
1447;DHT22;717;51.522;7.266;2022-10-31T12:46:19;21.90;99.90
1447;DHT22;717;51.522;7.266;2022-10-31T12:49:17;21.90;99.90
1447;DHT22;717;51.522;7.266;2022-10-31T12:51:54;21.90;99.90
1447;DHT22;717;51.522;7.266;2022-10-31T12:54:42;22.00;99.90
1447;DHT22;717;51.522;7.266;2022-10-31T12:57:22;22.00;99.90
1447;DHT22;717;51.522;7.266;2022-10-31T12:59:52;22.10;99.90
1447;DHT22;717;51.522;7.266;2022-10-31T13:02:23;22.10;99.90
1447;DHT22;717;51.522;7.266;2022-10-31T13:04:55;22.10;99.90
1447;DHT22;717;51.522;7.266;2022-10-31T13:07:25;22.20;99.90
1447;DHT22;717;51.522;7.266;2022-10-31T13:10:02;22.20;99.90
1447;DHT22;717;51.522;7.266;2022-10-31T13:12:31;22.30;99.90
1447;DHT22;717;51.522;7.266;2022-10-31T13:15:01;22.30;99.90
1447;DHT22;717;51.522;7.266;2022-10-31T13:17:34;22.30;99.90
1447;DHT22;717;51.522;7.266;2022-10-31T13:20:13;22.40;99.90
1447;DHT22;717;51.522;7.266;2022-10-31T13:22:45;22.50;99.90
1447;DHT22;717;51.522;7.266;2022-10-31T13:25:17;22.50;99.90
1447;DHT22;717;51.522;7.266;2022-10-31T13:27:48;22.50;99.90
1447;DHT22;717;51.522;7.266;2022-10-31T13:30:18;22.50;99.90
1447;DHT22;717;51.522;7.266;2022-10-31T13:32:49;22.60;99.90
1447;DHT22;717;51.522;7.266;2022-10-31T13:35:21;22.60;99.90
1447;DHT22;717;51.522;7.266;2022-10-31T13:37:54;22.60;99.90
1447;DHT22;717;51.522;7.266;2022-10-31T13:40:35;22.60;99.90
1447;DHT22;717;51.522;7.266;2022-10-31T13:43:08;22.70;99.90
1447;DHT22;717;51.522;7.266;2022-10-31T13:45:48;22.70;99.90
1447;DHT22;717;51.522;7.266;2022-10-31T13:48:33;22.70;99.90
1447;DHT22;717;51.522;7.266;2022-10-31T13:51:01;22.70;99.90
1447;DHT22;717;51.522;7.266;2022-10-31T13:53:37;22.70;99.90
1447;DHT22;717;51.522;7.266;2022-10-31T13:56:17;22.70;99.90
1447;DHT22;717;51.522;7.266;2022-10-31T13:58:58;22.70;99.90
1447;DHT22;717;51.522;7.266;2022-10-31T14:01:25;22.70;99.90
1447;DHT22;717;51.522;7.266;2022-10-31T14:04:01;22.70;99.90
1447;DHT22;717;51.522;7.266;2022-10-31T14:06:37;22.70;99.90
1447;DHT22;717;51.522;7.266;2022-10-31T14:09:05;22.80;99.90
1447;DHT22;717;51.522;7.266;2022-10-31T14:11:33;22.80;99.90
1447;DHT22;717;51.522;7.266;2022-10-31T14:14:02;22.80;99.90
1447;DHT22;717;51.522;7.266;2022-10-31T14:16:30;22.80;99.90
1447;DHT22;717;51.522;7.266;2022-10-31T14:19:01;22.80;99.90
1447;DHT22;717;51.522;7.266;2022-10-31T14:21:31;22.90;99.90
1447;DHT22;717;51.522;7.266;2022-10-31T14:24:13;22.80;99.90
1447;DHT22;717;51.522;7.266;2022-10-31T14:26:51;22.90;99.90
1447;DHT22;717;51.522;7.266;2022-10-31T14:29:24;22.90;99.90
1447;DHT22;717;51.522;7.266;2022-10-31T14:31:54;22.90;99.90
1447;DHT22;717;51.522;7.266;2022-10-31T14:34:24;22.90;99.90
1447;DHT22;717;51.522;7.266;2022-10-31T14:37:12;22.90;99.90
1447;DHT22;717;51.522;7.266;2022-10-31T14:39:52;23.00;99.90
1447;DHT22;717;51.522;7.266;2022-10-31T14:42:31;23.00;99.90
1447;DHT22;717;51.522;7.266;2022-10-31T14:45:18;23.00;99.90
1447;DHT22;717;51.522;7.266;2022-10-31T14:48:00;23.00;99.90
1447;DHT22;717;51.522;7.266;2022-10-31T14:50:43;23.00;99.90
1447;DHT22;717;51.522;7.266;2022-10-31T14:53:17;23.00;99.90
1447;DHT22;717;51.522;7.266;2022-10-31T14:55:48;23.00;99.90
1447;DHT22;717;51.522;7.266;2022-10-31T14:58:19;23.00;99.90
1447;DHT22;717;51.522;7.266;2022-10-31T15:00:47;23.00;99.90
1447;DHT22;717;51.522;7.266;2022-10-31T15:03:16;23.00;99.90
1447;DHT22;717;51.522;7.266;2022-10-31T15:05:48;23.00;99.90
1447;DHT22;717;51.522;7.266;2022-10-31T15:08:29;23.00;99.90
1447;DHT22;717;51.522;7.266;2022-10-31T15:10:57;23.00;99.90
1447;DHT22;717;51.522;7.266;2022-10-31T15:13:25;23.00;99.90
1447;DHT22;717;51.522;7.266;2022-10-31T15:15:54;23.00;99.90
1447;DHT22;717;51.522;7.266;2022-10-31T15:18:23;22.90;99.90
1447;DHT22;717;51.522;7.266;2022-10-31T15:20:51;22.90;99.90
1447;DHT22;717;51.522;7.266;2022-10-31T15:23:22;22.90;99.90
1447;DHT22;717;51.522;7.266;2022-10-31T15:25:49;22.90;99.90
1447;DHT22;717;51.522;7.266;2022-10-31T15:28:22;22.90;99.90
1447;DHT22;717;51.522;7.266;2022-10-31T15:30:52;22.90;99.90
1447;DHT22;717;51.522;7.266;2022-10-31T15:33:23;22.80;99.90
1447;DHT22;717;51.522;7.266;2022-10-31T15:35:58;22.80;99.90
1447;DHT22;717;51.522;7.266;2022-10-31T15:38:25;22.80;99.90
1447;DHT22;717;51.522;7.266;2022-10-31T15:40:54;22.90;99.90
1447;DHT22;717;51.522;7.266;2022-10-31T15:43:22;22.80;99.90
1447;DHT22;717;51.522;7.266;2022-10-31T15:45:50;22.80;99.90
1447;DHT22;717;51.522;7.266;2022-10-31T15:48:19;22.80;99.90
1447;DHT22;717;51.522;7.266;2022-10-31T15:50:51;22.80;99.90
1447;DHT22;717;51.522;7.266;2022-10-31T15:53:20;22.80;99.90
1447;DHT22;717;51.522;7.266;2022-10-31T15:55:49;22.70;99.90
1447;DHT22;717;51.522;7.266;2022-10-31T15:58:17;22.70;99.90
1447;DHT22;717;51.522;7.266;2022-10-31T16:00:45;22.70;99.90
1447;DHT22;717;51.522;7.266;2022-10-31T16:03:26;22.70;99.90
1447;DHT22;717;51.522;7.266;2022-10-31T16:05:54;22.70;99.90
1447;DHT22;717;51.522;7.266;2022-10-31T16:08:24;22.70;99.90
1447;DHT22;717;51.522;7.266;2022-10-31T16:10:51;22.60;99.90
1447;DHT22;717;51.522;7.266;2022-10-31T16:13:22;22.60;99.90
1447;DHT22;717;51.522;7.266;2022-10-31T16:15:52;22.60;99.90
1447;DHT22;717;51.522;7.266;2022-10-31T16:18:20;22.60;99.90
1447;DHT22;717;51.522;7.266;2022-10-31T16:20:51;22.60;99.80
1447;DHT22;717;51.522;7.266;2022-10-31T16:23:20;22.60;99.70
1447;DHT22;717;51.522;7.266;2022-10-31T16:25:48;22.50;99.60
1447;DHT22;717;51.522;7.266;2022-10-31T16:28:19;22.50;99.50
1447;DHT22;717;51.522;7.266;2022-10-31T16:30:48;22.50;99.50
1447;DHT22;717;51.522;7.266;2022-10-31T16:33:26;22.50;99.40
1447;DHT22;717;51.522;7.266;2022-10-31T16:35:55;22.40;99.30
1447;DHT22;717;51.522;7.266;2022-10-31T16:38:22;22.40;99.20
1447;DHT22;717;51.522;7.266;2022-10-31T16:40:49;22.40;99.20
1447;DHT22;717;51.522;7.266;2022-10-31T16:43:18;22.40;99.20
1447;DHT22;717;51.522;7.266;2022-10-31T16:45:46;22.40;99.20
1447;DHT22;717;51.522;7.266;2022-10-31T16:48:14;22.30;99.20
1447;DHT22;717;51.522;7.266;2022-10-31T16:50:43;22.30;99.10
1447;DHT22;717;51.522;7.266;2022-10-31T16:53:14;22.30;99.00
1447;DHT22;717;51.522;7.266;2022-10-31T16:55:43;22.20;99.00
1447;DHT22;717;51.522;7.266;2022-10-31T16:58:16;22.20;99.00
1447;DHT22;717;51.522;7.266;2022-10-31T17:00:44;22.20;98.90
1447;DHT22;717;51.522;7.266;2022-10-31T17:03:11;22.10;98.90
1447;DHT22;717;51.522;7.266;2022-10-31T17:05:38;22.10;98.90
1447;DHT22;717;51.522;7.266;2022-10-31T17:08:05;22.10;98.90
1447;DHT22;717;51.522;7.266;2022-10-31T17:10:33;22.10;98.90
1447;DHT22;717;51.522;7.266;2022-10-31T17:13:00;22.00;98.90
1447;DHT22;717;51.522;7.266;2022-10-31T17:15:31;22.00;98.80
1447;DHT22;717;51.522;7.266;2022-10-31T17:17:59;22.00;98.70
1447;DHT22;717;51.522;7.266;2022-10-31T17:20:27;21.90;98.70
1447;DHT22;717;51.522;7.266;2022-10-31T17:22:55;21.90;98.60
1447;DHT22;717;51.522;7.266;2022-10-31T17:25:24;21.90;98.60
1447;DHT22;717;51.522;7.266;2022-10-31T17:27:53;21.80;98.40
1447;DHT22;717;51.522;7.266;2022-10-31T17:30:21;21.80;98.30
1447;DHT22;717;51.522;7.266;2022-10-31T17:32:49;21.80;98.20
1447;DHT22;717;51.522;7.266;2022-10-31T17:35:17;21.80;98.10
1447;DHT22;717;51.522;7.266;2022-10-31T17:37:45;21.70;98.00
1447;DHT22;717;51.522;7.266;2022-10-31T17:40:13;21.70;97.90
1447;DHT22;717;51.522;7.266;2022-10-31T17:42:40;21.70;97.70
1447;DHT22;717;51.522;7.266;2022-10-31T17:45:16;21.70;97.60
1447;DHT22;717;51.522;7.266;2022-10-31T17:47:45;21.70;97.50
1447;DHT22;717;51.522;7.266;2022-10-31T17:50:12;21.60;97.40
1447;DHT22;717;51.522;7.266;2022-10-31T17:52:39;21.60;97.20
1447;DHT22;717;51.522;7.266;2022-10-31T17:55:06;21.60;97.00
1447;DHT22;717;51.522;7.266;2022-10-31T17:57:33;21.60;97.00
1447;DHT22;717;51.522;7.266;2022-10-31T18:00:00;21.60;96.80
1447;DHT22;717;51.522;7.266;2022-10-31T18:02:28;21.60;96.70
1447;DHT22;717;51.522;7.266;2022-10-31T18:04:55;21.60;96.90
1447;DHT22;717;51.522;7.266;2022-10-31T18:07:22;21.60;96.30
1447;DHT22;717;51.522;7.266;2022-10-31T18:09:48;21.60;96.30
1447;DHT22;717;51.522;7.266;2022-10-31T18:12:15;21.50;96.00
1447;DHT22;717;51.522;7.266;2022-10-31T18:14:42;21.60;96.00
1447;DHT22;717;51.522;7.266;2022-10-31T18:17:09;21.50;95.70
1447;DHT22;717;51.522;7.266;2022-10-31T18:19:37;21.50;95.60
1447;DHT22;717;51.522;7.266;2022-10-31T18:22:03;21.50;95.50
1447;DHT22;717;51.522;7.266;2022-10-31T18:24:30;21.50;95.60
1447;DHT22;717;51.522;7.266;2022-10-31T18:26:57;21.50;95.50
1447;DHT22;717;51.522;7.266;2022-10-31T18:29:23;21.50;95.30
1447;DHT22;717;51.522;7.266;2022-10-31T18:31:51;21.50;95.10